createdAt,value
2022-09-14T00:01:48.926Z,8.57
2022-09-14T00:04:19.197Z,8.43
2022-09-14T00:06:50.290Z,14.07
2022-09-14T00:09:20.283Z,10.20
2022-09-14T00:11:49.193Z,9.53
2022-09-14T00:14:19.100Z,10.63
2022-09-14T00:16:48.207Z,9.97
2022-09-14T00:19:19.507Z,9.07
2022-09-14T00:21:50.950Z,11.00
2022-09-14T00:24:19.442Z,11.40
2022-09-14T00:26:47.649Z,11.97
2022-09-14T00:29:15.925Z,10.43
2022-09-14T00:31:45.578Z,10.60
2022-09-14T00:34:16.829Z,11.03
2022-09-14T00:36:49.684Z,11.50
2022-09-14T00:39:19.213Z,12.30
2022-09-14T00:41:50.232Z,12.30
2022-09-14T00:44:57.833Z,11.80
2022-09-14T00:47:27.859Z,12.90
2022-09-14T00:49:56.254Z,12.70
2022-09-14T00:52:27.651Z,11.73
2022-09-14T00:54:59.686Z,10.57
2022-09-14T00:57:30.093Z,10.00
2022-09-14T00:59:59.202Z,9.77
2022-09-14T01:02:29.471Z,9.97
2022-09-14T01:04:58.393Z,10.20
2022-09-14T01:07:48.662Z,9.10
2022-09-14T01:10:28.541Z,11.23
2022-09-14T01:13:08.483Z,9.97
2022-09-14T01:15:46.901Z,11.73
2022-09-14T01:18:23.207Z,12.37
2022-09-14T01:20:57.620Z,10.90
2022-09-14T01:23:42.952Z,10.33
2022-09-14T01:26:47.504Z,12.73
2022-09-14T01:29:19.064Z,11.90
2022-09-14T01:31:54.173Z,15.10
2022-09-14T01:34:29.627Z,13.77
2022-09-14T01:37:04.998Z,12.37
2022-09-14T01:39:36.128Z,13.37
2022-09-14T01:42:05.457Z,13.07
2022-09-14T01:44:38.376Z,13.27
2022-09-14T01:47:12.670Z,12.07
2022-09-14T01:49:45.333Z,11.70
2022-09-14T01:52:22.993Z,11.77
2022-09-14T01:54:56.102Z,12.53
2022-09-14T01:57:27.852Z,11.10
2022-09-14T02:00:02.731Z,12.13
2022-09-14T02:02:34.270Z,11.03
2022-09-14T02:05:08.365Z,11.27
2022-09-14T02:07:37.982Z,11.73
2022-09-14T02:10:09.244Z,10.17
2022-09-14T02:12:37.605Z,10.33
2022-09-14T02:15:10.692Z,9.70
2022-09-14T02:17:39.103Z,10.23
2022-09-14T02:20:12.142Z,10.70
2022-09-14T02:22:40.376Z,11.20
2022-09-14T02:25:09.034Z,9.40
2022-09-14T02:27:37.201Z,10.73
2022-09-14T02:30:08.473Z,10.97
2022-09-14T02:32:43.579Z,10.17
2022-09-14T02:35:18.845Z,10.70
2022-09-14T02:37:55.287Z,10.83
2022-09-14T02:40:32.655Z,10.53
2022-09-14T02:43:11.904Z,10.90
2022-09-14T02:45:50.937Z,10.30
2022-09-14T02:48:28.525Z,10.10
2022-09-14T02:51:03.297Z,10.10
2022-09-14T02:53:38.235Z,10.73
2022-09-14T02:56:09.012Z,11.03
2022-09-14T02:58:38.793Z,9.17
2022-09-14T03:01:09.930Z,9.90
2022-09-14T03:03:38.485Z,10.77
2022-09-14T03:06:07.046Z,10.63
2022-09-14T03:08:35.859Z,9.37
2022-09-14T03:11:04.169Z,10.30
2022-09-14T03:13:32.352Z,9.33
2022-09-14T03:16:00.565Z,10.60
2022-09-14T03:18:30.281Z,8.60
2022-09-14T03:21:04.911Z,9.47
2022-09-14T03:23:37.108Z,8.17
2022-09-14T03:26:09.022Z,8.70
2022-09-14T03:28:37.703Z,9.97
2022-09-14T03:31:07.839Z,9.37
2022-09-14T03:33:37.707Z,8.50
2022-09-14T03:36:12.517Z,8.97
2022-09-14T03:38:44.070Z,8.37
2022-09-14T03:41:12.956Z,8.37
2022-09-14T03:43:41.581Z,8.77
2022-09-14T03:46:11.262Z,9.57
2022-09-14T03:48:41.433Z,9.63
2022-09-14T03:51:11.314Z,8.90
2022-09-14T03:53:40.114Z,9.03
2022-09-14T03:56:10.682Z,9.47
2022-09-14T03:58:39.064Z,8.10
2022-09-14T04:01:08.407Z,9.43
2022-09-14T04:03:37.256Z,8.67
2022-09-14T04:06:07.933Z,7.53
2022-09-14T04:08:37.948Z,8.23
2022-09-14T04:11:09.298Z,8.43
2022-09-14T04:13:37.794Z,8.63
2022-09-14T04:16:06.162Z,7.97
2022-09-14T04:18:34.661Z,7.60
2022-09-14T04:21:08.554Z,7.13
2022-09-14T04:24:03.073Z,8.53
2022-09-14T04:26:28.832Z,6.23
2022-09-14T04:28:57.821Z,6.00
2022-09-14T04:31:26.817Z,7.33
2022-09-14T04:33:57.315Z,7.00
2022-09-14T04:36:28.407Z,7.40
2022-09-14T04:39:00.121Z,7.40
2022-09-14T04:41:29.376Z,6.93
2022-09-14T04:43:57.756Z,5.37
2022-09-14T04:46:28.564Z,6.93
2022-09-14T04:48:56.960Z,6.30
2022-09-14T04:51:27.191Z,7.00
2022-09-14T04:53:59.473Z,6.93
2022-09-14T04:56:28.783Z,6.87
2022-09-14T04:58:59.385Z,6.10
2022-09-14T05:01:29.562Z,6.47
2022-09-14T05:03:58.769Z,6.73
2022-09-14T05:06:29.344Z,6.30
2022-09-14T05:09:00.973Z,6.17
2022-09-14T05:11:31.701Z,5.23
2022-09-14T05:14:01.244Z,5.83
2022-09-14T05:16:32.676Z,5.57
2022-09-14T05:19:03.017Z,6.43
2022-09-14T05:21:33.599Z,5.60
2022-09-14T05:24:05.841Z,6.13
2022-09-14T05:26:34.378Z,6.53
2022-09-14T05:29:03.985Z,6.93
2022-09-14T05:31:33.681Z,6.50
2022-09-14T05:34:02.071Z,6.77
2022-09-14T05:36:30.342Z,6.77
2022-09-14T05:38:59.094Z,6.20
2022-09-14T05:41:28.620Z,5.50
2022-09-14T05:43:56.948Z,6.53
2022-09-14T05:46:25.171Z,5.73
2022-09-14T05:48:53.390Z,6.63
2022-09-14T05:51:23.547Z,6.40
2022-09-14T05:53:52.996Z,6.87
2022-09-14T05:56:22.664Z,6.30
2022-09-14T05:58:52.467Z,6.53
2022-09-14T06:01:23.350Z,5.87
2022-09-14T06:03:54.391Z,7.63
2022-09-14T06:06:23.436Z,6.50
2022-09-14T06:08:54.267Z,7.03
2022-09-14T06:11:24.070Z,5.93
2022-09-14T06:13:54.549Z,7.23
2022-09-14T06:16:24.003Z,5.40
2022-09-14T06:18:52.506Z,5.73
2022-09-14T06:21:22.342Z,5.53
2022-09-14T06:23:52.049Z,5.50
2022-09-14T06:26:20.847Z,5.83
2022-09-14T06:28:50.001Z,8.93
2022-09-14T06:31:22.605Z,6.10
2022-09-14T06:33:51.789Z,5.70
2022-09-14T06:36:22.756Z,5.20
2022-09-14T06:38:52.470Z,5.90
2022-09-14T06:41:22.961Z,5.07
2022-09-14T06:43:52.344Z,5.13
2022-09-14T06:46:24.333Z,6.87
2022-09-14T06:48:54.243Z,5.70
2022-09-14T06:51:23.759Z,4.30
2022-09-14T06:53:54.000Z,5.30
2022-09-14T06:56:22.409Z,4.47
2022-09-14T06:58:52.266Z,5.73
2022-09-14T07:01:22.798Z,7.20
2022-09-14T07:03:52.811Z,5.07
2022-09-14T07:06:23.021Z,3.87
2022-09-14T07:08:52.474Z,6.43
2022-09-14T07:11:23.597Z,4.33
2022-09-14T07:13:52.027Z,4.30
2022-09-14T07:16:22.237Z,5.10
2022-09-14T07:18:54.381Z,3.80
2022-09-14T07:21:23.306Z,4.40
2022-09-14T07:23:51.674Z,3.90
2022-09-14T07:26:22.115Z,4.17
2022-09-14T07:28:55.815Z,4.63
2022-09-14T07:31:29.456Z,4.07
2022-09-14T07:33:59.561Z,6.57
2022-09-14T07:36:31.589Z,3.43
2022-09-14T07:39:03.499Z,3.17
2022-09-14T07:41:33.092Z,5.23
2022-09-14T07:44:03.122Z,4.17
2022-09-14T07:46:38.438Z,3.97
2022-09-14T07:49:08.414Z,4.90
2022-09-14T07:51:38.073Z,3.50
2022-09-14T07:54:07.984Z,4.30
2022-09-14T07:56:36.409Z,3.77
2022-09-14T07:59:33.508Z,3.37
2022-09-14T08:01:54.755Z,5.17
2022-09-14T08:04:23.524Z,4.73
2022-09-14T08:06:51.659Z,2.80
2022-09-14T08:09:19.810Z,4.10
2022-09-14T08:11:47.936Z,2.77
2022-09-14T08:14:17.656Z,3.77
2022-09-14T08:16:46.121Z,2.40
2022-09-14T08:19:21.082Z,2.63
2022-09-14T08:21:51.223Z,3.10
2022-09-14T08:24:21.208Z,6.40
2022-09-14T08:26:50.126Z,3.83
2022-09-14T08:29:19.897Z,2.53
2022-09-14T08:31:48.974Z,4.70
2022-09-14T08:34:19.738Z,4.03
2022-09-14T08:36:49.098Z,2.13
2022-09-14T08:39:19.455Z,3.07
2022-09-14T08:41:54.609Z,2.90
2022-09-14T08:44:28.230Z,3.47
2022-09-14T08:47:02.340Z,3.90
2022-09-14T08:49:47.921Z,3.63
2022-09-14T08:52:25.770Z,2.40
2022-09-14T08:54:56.969Z,2.30
2022-09-14T08:57:32.716Z,2.10
2022-09-14T09:00:10.481Z,3.97
2022-09-14T09:03:11.674Z,6.07
2022-09-14T09:05:47.293Z,4.20
2022-09-14T09:08:20.818Z,5.00
2022-09-14T09:10:51.199Z,3.77
2022-09-14T09:13:22.677Z,3.67
2022-09-14T09:15:52.728Z,3.63
2022-09-14T09:18:28.070Z,4.10
2022-09-14T09:21:02.358Z,3.57
2022-09-14T09:23:33.260Z,2.83
2022-09-14T09:26:07.114Z,4.50
2022-09-14T09:28:36.020Z,3.00
2022-09-14T09:31:11.420Z,3.17
2022-09-14T09:33:40.881Z,5.17
2022-09-14T09:36:14.987Z,2.47
2022-09-14T09:38:43.377Z,3.17
2022-09-14T09:41:19.726Z,3.37
2022-09-14T09:44:01.024Z,4.27
2022-09-14T09:46:31.142Z,4.43
2022-09-14T09:49:03.389Z,4.30
2022-09-14T09:51:34.248Z,2.70
2022-09-14T09:54:08.699Z,4.30
2022-09-14T09:56:40.237Z,5.17
2022-09-14T09:59:28.421Z,3.07
2022-09-14T10:01:57.189Z,2.00
2022-09-14T10:04:29.963Z,3.53
2022-09-14T10:06:59.641Z,5.80
2022-09-14T10:09:29.652Z,5.60
2022-09-14T10:11:59.992Z,4.93
2022-09-14T10:14:32.105Z,3.07
2022-09-14T10:17:08.496Z,4.10
2022-09-14T10:19:37.830Z,4.10
2022-09-14T10:22:22.996Z,4.83
2022-09-14T10:24:56.568Z,6.30
2022-09-14T10:27:37.738Z,5.03
2022-09-14T10:30:09.650Z,4.30
2022-09-14T10:32:40.105Z,3.33
2022-09-14T10:35:14.562Z,3.97
2022-09-14T10:40:37.274Z,4.73
2022-09-14T10:43:14.720Z,3.73
2022-09-14T10:45:47.119Z,4.20
2022-09-14T10:48:48.350Z,3.03
2022-09-14T10:51:38.338Z,3.60
2022-09-14T10:54:22.578Z,3.57
2022-09-14T10:57:05.664Z,2.27
2022-09-14T10:59:42.098Z,3.83
2022-09-14T11:02:48.762Z,4.20
2022-09-14T11:05:23.155Z,3.97
2022-09-14T11:08:05.750Z,5.70
2022-09-14T11:10:44.612Z,2.90
2022-09-14T11:13:42.004Z,4.73
2022-09-14T11:16:24.428Z,2.60
2022-09-14T11:19:03.810Z,4.13
2022-09-14T11:21:42.954Z,6.57
2022-09-14T11:24:20.653Z,2.47
2022-09-14T11:26:56.065Z,3.53
2022-09-14T11:29:30.032Z,3.27
2022-09-14T11:32:20.337Z,5.77
2022-09-14T11:34:54.880Z,2.83
2022-09-14T11:37:30.898Z,5.53
2022-09-14T11:40:08.179Z,5.40
2022-09-14T11:42:42.081Z,3.73
2022-09-14T11:45:18.750Z,3.20
2022-09-14T11:47:53.275Z,3.30
2022-09-14T11:50:24.183Z,2.47
2022-09-14T11:53:03.529Z,5.60
2022-09-14T11:55:32.626Z,2.67
2022-09-14T11:58:02.162Z,3.27
2022-09-14T12:04:10.687Z,3.97
2022-09-14T12:06:54.161Z,4.07
2022-09-14T12:09:44.587Z,6.90
2022-09-14T12:12:37.660Z,3.80
2022-09-14T12:15:33.342Z,8.67
2022-09-14T12:18:24.917Z,3.33
2022-09-14T12:21:04.997Z,3.80
2022-09-14T12:23:51.769Z,3.60
2022-09-14T12:26:37.897Z,3.43
2022-09-14T12:29:25.893Z,4.20
2022-09-14T12:32:07.685Z,2.80
2022-09-14T12:34:35.869Z,5.23
2022-09-14T12:37:28.322Z,6.07
2022-09-14T12:40:25.088Z,5.20
2022-09-14T12:42:53.444Z,3.43
2022-09-14T12:45:50.921Z,5.73
2022-09-14T12:48:58.634Z,3.43
2022-09-14T12:51:39.294Z,3.30
2022-09-14T12:54:22.150Z,5.83
2022-09-14T12:56:58.487Z,6.73
2022-09-14T12:59:32.343Z,6.27
2022-09-14T13:02:40.290Z,4.70
2022-09-14T13:05:15.874Z,3.60
2022-09-14T13:07:44.513Z,7.13
2022-09-14T13:10:21.894Z,4.77
2022-09-14T13:12:50.542Z,3.73
2022-09-14T13:15:23.064Z,4.33
2022-09-14T13:18:01.317Z,4.03
2022-09-14T13:20:30.641Z,3.23
2022-09-14T13:22:59.195Z,5.53
2022-09-14T13:25:34.486Z,7.00
2022-09-14T13:28:05.458Z,4.17
2022-09-14T13:30:36.494Z,4.90
2022-09-14T13:33:05.380Z,7.83
2022-09-14T13:35:36.426Z,4.73
2022-09-14T13:40:50.938Z,8.50
2022-09-14T13:43:20.651Z,5.90
2022-09-14T13:45:50.674Z,8.53
2022-09-14T13:48:21.064Z,7.77
2022-09-14T13:50:51.030Z,7.13
2022-09-14T13:53:42.510Z,5.20
2022-09-14T13:56:29.266Z,6.73
2022-09-14T13:59:20.730Z,9.70
2022-09-14T14:01:59.228Z,5.90
2022-09-14T14:04:33.657Z,5.13
2022-09-14T14:07:16.074Z,5.00
2022-09-14T14:09:47.538Z,8.20
2022-09-14T14:12:26.393Z,14.00
2022-09-14T14:14:56.634Z,9.10
2022-09-14T14:17:36.996Z,7.37
2022-09-14T14:20:34.644Z,7.60
2022-09-14T14:23:21.349Z,6.30
2022-09-14T14:25:54.173Z,5.73
2022-09-14T14:28:27.193Z,6.33
2022-09-14T14:30:57.017Z,5.27
2022-09-14T14:33:25.812Z,4.03
2022-09-14T14:35:56.524Z,10.40
2022-09-14T14:41:05.815Z,5.13
2022-09-14T14:43:35.771Z,8.17
2022-09-14T14:46:04.244Z,6.90
2022-09-14T14:48:33.031Z,8.27
2022-09-14T14:51:02.095Z,3.97
2022-09-14T14:53:30.805Z,4.53
2022-09-14T14:55:59.279Z,5.47
2022-09-14T14:58:27.572Z,5.87
2022-09-14T15:00:57.398Z,7.70
2022-09-14T15:03:25.823Z,10.70
2022-09-14T15:05:54.045Z,9.10
2022-09-14T15:08:22.402Z,3.57
2022-09-14T15:10:56.545Z,7.30
2022-09-14T15:13:24.982Z,8.60
2022-09-14T15:15:53.225Z,9.47
2022-09-14T15:18:22.861Z,4.77
2022-09-14T15:20:51.136Z,4.17
2022-09-14T15:23:19.321Z,5.13
2022-09-14T15:25:47.713Z,6.07
2022-09-14T15:28:17.134Z,4.67
2022-09-14T15:30:45.419Z,3.53
2022-09-14T15:33:13.731Z,8.13
2022-09-14T15:35:43.466Z,7.33
2022-09-14T15:38:11.675Z,2.87
2022-09-14T15:40:39.990Z,5.77
2022-09-14T15:43:08.294Z,4.47
2022-09-14T15:45:36.600Z,9.77
2022-09-14T15:48:05.003Z,6.60
2022-09-14T15:50:33.213Z,5.27
2022-09-14T15:53:03.165Z,4.30
2022-09-14T15:55:31.384Z,6.13
2022-09-14T15:57:59.562Z,3.23
2022-09-14T16:00:28.202Z,4.40
2022-09-14T16:02:56.423Z,4.20
2022-09-14T16:05:24.708Z,5.60
2022-09-14T16:07:54.678Z,5.97
2022-09-14T16:10:25.723Z,7.13
2022-09-14T16:12:56.211Z,6.73
2022-09-14T16:15:24.686Z,7.33
2022-09-14T16:17:55.801Z,6.50
2022-09-14T16:20:24.338Z,6.93
2022-09-14T16:22:52.725Z,5.83
2022-09-14T16:25:20.942Z,5.80
2022-09-14T16:27:50.591Z,6.63
2022-09-14T16:30:18.847Z,3.67
2022-09-14T16:32:47.357Z,4.67
2022-09-14T16:35:15.747Z,4.10
2022-09-14T16:37:43.942Z,4.73
2022-09-14T16:40:13.969Z,5.60
2022-09-14T16:42:42.334Z,5.73
2022-09-14T16:45:12.342Z,5.57
2022-09-14T16:47:40.559Z,3.07
2022-09-14T16:50:09.629Z,4.33
2022-09-14T16:52:37.925Z,6.77
2022-09-14T16:55:07.282Z,5.77
2022-09-14T16:57:35.507Z,7.13
2022-09-14T17:00:05.189Z,4.03
2022-09-14T17:02:34.878Z,5.90
2022-09-14T17:05:03.190Z,5.37
2022-09-14T17:07:31.361Z,3.13
2022-09-14T17:09:59.735Z,6.17
2022-09-14T17:12:27.978Z,5.70
2022-09-14T17:14:56.191Z,5.87
2022-09-14T17:17:24.482Z,5.80
2022-09-14T17:19:54.094Z,6.57
2022-09-14T17:22:22.314Z,5.10
2022-09-14T17:24:50.528Z,5.60
2022-09-14T17:27:20.020Z,5.07
2022-09-14T17:29:48.617Z,4.90
2022-09-14T17:32:16.989Z,3.53
2022-09-14T17:34:45.935Z,4.80
2022-09-14T17:37:15.666Z,7.97
2022-09-14T17:39:43.965Z,4.90
2022-09-14T17:42:12.286Z,5.10
2022-09-14T17:44:40.999Z,8.27
2022-09-14T17:47:09.290Z,6.13
2022-09-14T17:49:37.958Z,4.50
2022-09-14T17:52:06.541Z,9.03
2022-09-14T17:54:36.471Z,4.80
2022-09-14T17:57:05.128Z,5.30
2022-09-14T17:59:33.443Z,7.07
2022-09-14T18:02:01.663Z,4.97
2022-09-14T18:04:30.245Z,5.80
2022-09-14T18:06:58.635Z,3.47
2022-09-14T18:09:28.486Z,3.57
2022-09-14T18:11:58.905Z,4.30
2022-09-14T18:14:27.553Z,5.57
2022-09-14T18:16:58.235Z,6.37
2022-09-14T18:19:26.922Z,5.17
2022-09-14T18:21:55.145Z,6.70
2022-09-14T18:24:23.495Z,7.07
2022-09-14T18:26:51.923Z,3.27
2022-09-14T18:29:23.265Z,5.03
2022-09-14T18:31:51.754Z,6.73
2022-09-14T18:34:21.149Z,5.57
2022-09-14T18:36:51.856Z,4.33
2022-09-14T18:39:20.096Z,5.13
2022-09-14T18:41:51.811Z,4.40
2022-09-14T18:44:21.741Z,5.90
2022-09-14T18:46:51.184Z,4.33
2022-09-14T18:49:20.005Z,5.77
2022-09-14T18:51:48.225Z,5.93
2022-09-14T18:54:16.481Z,4.63
2022-09-14T18:56:44.676Z,5.70
2022-09-14T18:59:14.454Z,4.90
2022-09-14T19:01:44.377Z,7.33
2022-09-14T19:04:13.207Z,4.80
2022-09-14T19:06:42.327Z,5.10
2022-09-14T19:09:11.784Z,4.70
2022-09-14T19:11:40.113Z,7.57
2022-09-14T19:14:10.584Z,5.67
2022-09-14T19:16:40.281Z,4.23
2022-09-14T19:19:12.833Z,9.57
2022-09-14T19:21:41.078Z,5.00
2022-09-14T19:24:11.353Z,6.93
2022-09-14T19:26:45.199Z,6.73
2022-09-14T19:29:14.622Z,6.00
2022-09-14T19:31:43.023Z,5.50
2022-09-14T19:34:13.273Z,6.67
2022-09-14T19:36:41.629Z,5.53
2022-09-14T19:39:14.845Z,5.90
2022-09-14T19:41:43.351Z,6.67
2022-09-14T19:44:12.959Z,6.77
2022-09-14T19:46:41.961Z,7.63
2022-09-14T19:49:15.879Z,5.87
2022-09-14T19:51:46.548Z,8.80
2022-09-14T19:54:15.295Z,8.80
2022-09-14T19:56:44.337Z,8.67
2022-09-14T19:59:12.591Z,4.83
2022-09-14T20:01:41.801Z,8.47
2022-09-14T20:04:11.738Z,6.90
2022-09-14T20:06:43.693Z,5.83
2022-09-14T20:09:14.805Z,8.07
2022-09-14T20:11:44.986Z,9.50
2022-09-14T20:14:14.931Z,8.90
2022-09-14T20:16:44.926Z,4.90
2022-09-14T20:19:14.738Z,7.50
2022-09-14T20:21:45.341Z,7.50
2022-09-14T20:24:17.066Z,8.00
2022-09-14T20:26:46.562Z,7.17
2022-09-14T20:29:15.317Z,10.07
2022-09-14T20:31:43.952Z,8.03
2022-09-14T20:34:13.047Z,7.20
2022-09-14T20:36:41.418Z,10.17
2022-09-14T20:41:46.730Z,6.43
2022-09-14T20:44:16.088Z,12.00
2022-09-14T20:46:47.079Z,10.37
2022-09-14T20:49:17.026Z,7.40
2022-09-14T20:51:45.528Z,8.70
2022-09-14T20:54:15.561Z,8.87
2022-09-14T20:56:46.168Z,13.47
2022-09-14T20:59:17.077Z,8.07
2022-09-14T21:01:47.583Z,10.03
2022-09-14T21:04:19.873Z,11.50
2022-09-14T21:06:49.674Z,8.13
2022-09-14T21:09:18.926Z,8.80
2022-09-14T21:11:49.162Z,7.10
2022-09-14T21:14:19.409Z,8.87
2022-09-14T21:16:49.146Z,6.60
2022-09-14T21:19:19.536Z,8.47
2022-09-14T21:21:48.600Z,10.03
2022-09-14T21:24:17.862Z,9.10
2022-09-14T21:26:46.544Z,7.83
2022-09-14T21:29:18.551Z,9.00
2022-09-14T21:31:47.093Z,7.53
2022-09-14T21:34:15.392Z,7.67
2022-09-14T21:36:46.053Z,8.50
2022-09-14T21:41:59.100Z,7.00
2022-09-14T21:44:33.358Z,7.87
2022-09-14T21:47:01.808Z,10.67
2022-09-14T21:49:30.085Z,6.90
2022-09-14T21:51:58.332Z,7.47
2022-09-14T21:54:26.837Z,8.27
2022-09-14T21:56:55.464Z,9.10
2022-09-14T21:59:25.029Z,10.73
2022-09-14T22:01:55.004Z,9.70
2022-09-14T22:04:25.237Z,8.07
2022-09-14T22:06:54.418Z,9.97
2022-09-14T22:09:25.027Z,6.80
2022-09-14T22:11:53.949Z,7.97
2022-09-14T22:14:23.996Z,9.10
2022-09-14T22:16:52.537Z,8.03
2022-09-14T22:19:23.955Z,6.40
2022-09-14T22:21:52.679Z,8.40
2022-09-14T22:24:23.597Z,6.87
2022-09-14T22:26:52.070Z,8.23
2022-09-14T22:29:20.548Z,7.60
2022-09-14T22:31:49.068Z,8.30
2022-09-14T22:34:17.810Z,7.87
2022-09-14T22:36:47.441Z,10.53
2022-09-14T22:39:15.754Z,11.30
2022-09-14T22:41:44.204Z,10.20
2022-09-14T22:44:13.598Z,10.30
2022-09-14T22:46:42.178Z,6.53
2022-09-14T22:49:10.719Z,9.00
2022-09-14T22:51:38.985Z,8.00
2022-09-14T22:54:08.889Z,10.80
2022-09-14T22:56:39.390Z,6.80
2022-09-14T22:59:10.111Z,9.50
2022-09-14T23:01:40.268Z,9.73
2022-09-14T23:04:10.499Z,7.67
2022-09-14T23:06:40.491Z,5.67
2022-09-14T23:09:11.888Z,5.93
2022-09-14T23:11:40.411Z,8.90
2022-09-14T23:14:08.812Z,8.90
2022-09-14T23:16:39.522Z,8.53
2022-09-14T23:19:08.373Z,8.17
2022-09-14T23:21:36.845Z,9.17
2022-09-14T23:24:07.590Z,12.47
2022-09-14T23:26:37.266Z,8.07
2022-09-14T23:29:09.173Z,7.80
2022-09-14T23:31:37.479Z,10.93
2022-09-14T23:34:06.732Z,9.97
2022-09-14T23:36:35.688Z,10.33
2022-09-14T23:39:04.825Z,10.93
2022-09-14T23:41:33.281Z,10.87
2022-09-14T23:44:03.401Z,8.43
2022-09-14T23:46:31.644Z,8.97
2022-09-14T23:48:59.944Z,9.13
2022-09-14T23:51:28.170Z,8.50
2022-09-14T23:53:56.402Z,9.40
2022-09-14T23:56:24.755Z,9.10
2022-09-14T23:58:53.048Z,8.87
